Saint-Pamphile, Canada
Current Conditions -  °F | °C
As of 1:53 PM on Tuesday 21 Oct 2014 (Local Time) from KFVE Reporting Station
Broken Clouds Broken Clouds  
Wind Chill: 44°   Ceiling: 11000
Heat Index: 44°   Visibility: 10mi
Dew Point: 24°   Wind: 0mph
Humidity: 45%   Direction: NA
Pressure: 30.11"   Gusts: NA
Location:  46.95°N, 69.78°W
Report Text: KFVE 211753Z AUTO 00000KT 10SM BKN110 07/M04 A3011 RMK AO2 SLP204 T00671044 10072 21017 53004
Loading
Personal Weather Stations






























Interactive Weather Map
Tropical Storm Tracking
New forecast layout! Learn more

10-Day Weather Forecast

Advertisements
Track Severe Weather on mobile